Time;durP1;ratioP1;P1;durP2;ratioP2;P2;SDS_P1;SDS_P2;PMS_P1;PMS_P2;Temp;Humidity;BMP_temperature;BMP_pressure;BME280_temperature;BME280_humidity;BME280_pressure;Samples;Min_cycle;Max_cycle;Signal;HPM_P1;HPM_P2
2023/09/22 00:01:02;;;;;;;;;0.00;0.00;;;;;15.07;100.00;99885.03;5102032;27;46199;-75
2023/09/22 00:03:31;;;;;;;;;0.00;0.00;;;;;15.07;100.00;99885.88;5101831;27;45399;-75
2023/09/22 00:05:57;;;;;;;;;0.00;0.00;;;;;14.99;100.00;99885.63;5119145;27;45310;-75
2023/09/22 00:08:22;;;;;;;;;0.00;0.00;;;;;15.02;100.00;99885.38;5102131;27;45411;-75
2023/09/22 00:10:48;;;;;;;;;0.00;0.00;;;;;14.87;100.00;99862.66;5114724;27;46110;-75
2023/09/22 00:13:14;;;;;;;;;0.00;0.00;;;;;14.98;100.00;99881.28;5116622;27;45299;-75
2023/09/22 00:15:40;;;;;;;;;0.00;0.00;;;;;14.95;100.00;99884.16;5118418;27;45418;-75
2023/09/22 00:18:05;;;;;;;;;0.00;0.00;;;;;14.92;100.00;99886.25;5110256;27;45387;-76
2023/09/22 00:20:31;;;;;;;;;0.00;0.00;;;;;14.86;100.00;99890.22;5104922;27;46105;-76
2023/09/22 00:22:56;;;;;;;;;0.00;0.00;;;;;14.76;100.00;99865.31;5112105;27;45589;-75
2023/09/22 00:25:22;;;;;;;;;0.33;0.00;;;;;14.83;100.00;99885.16;5100753;27;45370;-76
2023/09/22 00:27:48;;;;;;;;;0.00;0.00;;;;;14.75;100.00;99876.94;5101631;27;45467;-75
2023/09/22 00:30:13;;;;;;;;;0.00;0.00;;;;;14.80;100.00;99890.72;5116609;27;47129;-75
2023/09/22 00:32:39;;;;;;;;;1.00;0.00;;;;;14.78;100.00;99892.66;5119588;27;45615;-75
2023/09/22 00:35:06;;;;;;;;;0.00;0.00;;;;;14.77;100.00;99901.59;5110123;27;45537;-75
2023/09/22 00:37:33;;;;;;;;;0.00;0.00;;;;;14.73;100.00;99899.31;5102972;27;45236;-75
2023/09/22 00:39:58;;;;;;;;;0.00;0.00;;;;;14.73;100.00;99896.63;5113290;27;45504;-75
2023/09/22 00:42:24;;;;;;;;;3.00;0.00;;;;;14.54;100.00;99865.31;5102965;27;45391;-75
2023/09/22 00:44:49;;;;;;;;;0.00;0.00;;;;;14.70;100.00;99892.41;5101482;27;45390;-75
2023/09/22 00:47:16;;;;;;;;;0.00;0.00;;;;;14.61;100.00;99871.84;5110170;27;45625;-75
2023/09/22 00:49:42;;;;;;;;;0.00;0.00;;;;;14.71;100.00;99888.78;5104573;27;46149;-75
2023/09/22 00:52:08;;;;;;;;;0.00;0.00;;;;;14.75;100.00;99894.72;5114095;27;45300;-75
2023/09/22 00:54:34;;;;;;;;;0.00;0.00;;;;;14.70;100.00;99894.22;5102694;27;45264;-75
2023/09/22 00:57:00;;;;;;;;;0.00;0.00;;;;;14.71;100.00;99904.75;5110336;27;45659;-75
2023/09/22 00:59:26;;;;;;;;;0.00;0.00;;;;;14.72;100.00;99906.47;5117719;27;45324;-75
2023/09/22 01:01:51;;;;;;;;;0.00;0.00;;;;;14.70;100.00;99905.72;5110420;27;45285;-74
2023/09/22 01:04:19;;;;;;;;;0.00;0.00;;;;;14.64;100.00;99895.56;5100833;27;45741;-75
2023/09/22 01:06:46;;;;;;;;;0.00;0.00;;;;;14.63;100.00;99904.50;5104149;27;45548;-75
2023/09/22 01:09:12;;;;;;;;;0.00;0.00;;;;;14.63;100.00;99903.69;5104427;27;45446;-75
2023/09/22 01:11:37;;;;;;;;;0.00;0.00;;;;;14.58;100.00;99886.25;5106191;27;46770;-75
2023/09/22 01:14:02;;;;;;;;;0.00;0.00;;;;;14.67;100.00;99913.09;5111691;27;45441;-75
2023/09/22 01:16:29;;;;;;;;;0.00;0.00;;;;;14.68;100.00;99909.47;5108610;27;45323;-75
2023/09/22 01:18:55;;;;;;;;;2.00;0.00;;;;;14.68;100.00;99901.50;5110720;27;45520;-75
2023/09/22 01:21:27;;;;;;;;;0.00;0.00;;;;;14.66;100.00;99900.78;5115802;27;45651;-75
2023/09/22 01:23:53;;;;;;;;;0.00;0.00;;;;;14.67;100.00;99892.66;5115449;27;45250;-74
2023/09/22 01:26:18;;;;;;;;;0.00;0.00;;;;;14.53;100.00;99875.09;5109976;27;45201;-74
2023/09/22 01:28:43;;;;;;;;;0.00;0.00;;;;;14.66;100.00;99890.94;5100782;27;46098;-74
2023/09/22 01:31:10;;;;;;;;;0.67;0.00;;;;;14.67;100.00;99884.66;5100211;27;45275;-73
2023/09/22 01:33:36;;;;;;;;;1.00;0.33;;;;;14.70;100.00;99889.75;5114887;27;45594;-74
2023/09/22 01:36:01;;;;;;;;;0.00;0.00;;;;;14.72;100.00;99886.97;5101852;27;45569;-74
2023/09/22 01:38:28;;;;;;;;;2.00;0.50;;;;;14.70;100.00;99891.56;5115311;27;47292;-73
2023/09/22 01:40:54;;;;;;;;;0.33;0.33;;;;;14.73;100.00;99894.81;5118545;27;45506;-74
2023/09/22 01:43:19;;;;;;;;;0.00;0.00;;;;;14.68;100.00;99880.19;5113605;27;45447;-74
2023/09/22 01:45:45;;;;;;;;;0.00;0.00;;;;;14.77;100.00;99895.44;5106182;27;45855;-74
2023/09/22 01:48:10;;;;;;;;;0.33;0.33;;;;;14.77;100.00;99896.28;5114788;27;47725;-73
2023/09/22 01:50:37;;;;;;;;;0.00;0.00;;;;;14.78;100.00;99897.13;5110039;27;45408;-74
2023/09/22 01:53:10;;;;;;;;;0.00;0.00;;;;;14.78;100.00;99890.00;5104449;27;45505;-73
2023/09/22 01:55:39;;;;;;;;;0.00;0.00;;;;;14.73;100.00;99897.50;5100902;27;45381;-74
2023/09/22 01:58:07;;;;;;;;;1.00;0.00;;;;;14.72;100.00;99893.16;5110798;27;45778;-74
2023/09/22 02:00:33;;;;;;;;;2.67;0.00;;;;;14.71;100.00;99891.44;5114881;27;45231;-74
2023/09/22 02:02:58;;;;;;;;;0.00;0.00;;;;;14.65;100.00;99886.63;5106301;27;45379;-74
2023/09/22 02:05:24;;;;;;;;;0.00;0.00;;;;;14.63;100.00;99893.84;5103032;27;45375;-73
2023/09/22 02:07:49;;;;;;;;;0.00;0.00;;;;;14.71;100.00;99896.78;5117240;27;45708;-74
2023/09/22 02:10:15;;;;;;;;;0.00;0.00;;;;;14.71;100.00;99896.78;5117049;27;45358;-74
2023/09/22 02:12:42;;;;;;;;;0.00;0.00;;;;;14.66;100.00;99885.63;5104492;27;45505;-74
2023/09/22 02:15:11;;;;;;;;;1.00;0.00;;;;;14.70;100.00;99903.06;5100477;27;45308;-74
2023/09/22 02:17:37;;;;;;;;;1.00;0.00;;;;;14.72;100.00;99900.28;5106473;27;45685;-73
2023/09/22 02:20:09;;;;;;;;;0.00;0.00;;;;;14.68;100.00;99889.03;5110610;27;45219;-74
2023/09/22 02:22:35;;;;;;;;;0.00;0.00;;;;;14.70;100.00;99902.19;5100770;27;45486;-74
2023/09/22 02:25:00;;;;;;;;;2.33;0.67;;;;;14.71;100.00;99899.44;5103569;27;45731;-74
2023/09/22 02:27:26;;;;;;;;;0.00;0.00;;;;;14.67;100.00;99910.44;5113977;27;45619;-74
2023/09/22 02:29:51;;;;;;;;;0.00;0.00;;;;;14.68;100.00;99902.34;5116635;27;45501;-75
2023/09/22 02:32:17;;;;;;;;;0.00;0.00;;;;;14.57;100.00;99881.88;5121789;27;45253;-74
2023/09/22 02:34:42;;;;;;;;;0.67;0.00;;;;;14.67;100.00;99903.28;5111961;27;45266;-74
2023/09/22 02:37:07;;;;;;;;;0.00;0.00;;;;;14.61;100.00;99893.13;5119379;27;45339;-74
2023/09/22 02:39:33;;;;;;;;;1.00;0.00;;;;;14.58;100.00;99890.72;5116918;27;45376;-73
2023/09/22 02:41:58;;;;;;;;;2.67;0.00;;;;;14.54;100.00;99897.25;5121840;27;45364;-74
2023/09/22 02:44:23;;;;;;;;;0.00;0.00;;;;;14.53;100.00;99904.38;5115570;27;45573;-73
2023/09/22 02:46:48;;;;;;;;;0.00;0.00;;;;;14.46;100.00;99900.47;5111188;27;46246;-74
2023/09/22 02:49:14;;;;;;;;;0.00;0.00;;;;;14.45;100.00;99897.97;5120172;27;45455;-73
2023/09/22 02:51:39;;;;;;;;;0.00;0.00;;;;;14.38;100.00;99896.72;5122066;27;45528;-74
2023/09/22 02:54:04;;;;;;;;;1.67;0.67;;;;;14.45;100.00;99922.75;5109199;27;45336;-74
2023/09/22 02:56:32;;;;;;;;;0.00;0.00;;;;;14.39;100.00;99911.75;5111514;27;45321;-73
2023/09/22 02:58:57;;;;;;;;;0.00;0.00;;;;;14.35;100.00;99911.13;5120125;27;45536;-74
2023/09/22 03:01:24;;;;;;;;;0.00;0.00;;;;;14.31;100.00;99904.31;5105919;27;45548;-74
2023/09/22 03:03:50;;;;;;;;;1.00;0.00;;;;;14.14;100.00;99885.28;5112190;27;45522;-74
2023/09/22 03:06:18;;;;;;;;;0.00;0.00;;;;;14.28;100.00;99919.66;5117904;27;45604;-73
2023/09/22 03:08:43;;;;;;;;;0.67;0.00;;;;;14.19;100.00;99907.91;5111508;27;45576;-73
2023/09/22 03:11:08;;;;;;;;;0.00;0.00;;;;;14.15;100.00;99909.09;5106386;27;45559;-73
2023/09/22 03:13:34;;;;;;;;;0.00;0.00;;;;;14.14;100.00;99904.75;5120020;27;45757;-73
2023/09/22 03:16:00;;;;;;;;;1.67;0.00;;;;;14.08;100.00;99897.22;5113151;27;48586;-75
2023/09/22 03:18:25;;;;;;;;;0.67;0.67;;;;;14.04;100.00;99891.28;5106466;27;45406;-74
2023/09/22 03:20:51;;;;;;;;;0.00;0.00;;;;;14.11;100.00;99902.31;5118178;27;45361;-74
2023/09/22 03:23:16;;;;;;;;;1.00;1.00;;;;;14.04;100.00;99901.94;5101626;27;45528;-74
2023/09/22 03:25:45;;;;;;;;;0.00;0.00;;;;;13.99;100.00;99898.78;5104057;27;45442;-73
2023/09/22 03:28:10;;;;;;;;;0.00;0.00;;;;;13.82;100.00;99888.56;5112985;27;45280;-73
2023/09/22 03:30:36;;;;;;;;;2.00;0.00;;;;;13.86;100.00;99898.00;5119903;27;45437;-73
2023/09/22 03:33:01;;;;;;;;;2.00;0.00;;;;;13.89;100.00;99918.19;5114973;27;45242;-73
2023/09/22 03:35:27;;;;;;;;;0.00;0.00;;;;;13.85;100.00;99914.06;5107728;27;45448;-73
2023/09/22 03:37:54;;;;;;;;;0.00;0.00;;;;;13.79;100.00;99907.41;5119598;27;45204;-73
2023/09/22 03:40:31;;;;;;;;;0.00;0.00;;;;;13.73;100.00;99893.72;5110285;27;45455;-73
2023/09/22 03:42:58;;;;;;;;;4.33;1.00;;;;;13.73;100.00;99894.56;5103342;27;45315;-73
2023/09/22 03:45:23;;;;;;;;;0.00;0.00;;;;;13.68;100.00;99894.06;5104183;27;45360;-74
2023/09/22 03:47:48;;;;;;;;;0.00;0.00;;;;;13.73;100.00;99897.22;5109183;27;51120;-73
2023/09/22 03:50:14;;;;;;;;;0.00;0.00;;;;;13.62;100.00;99897.16;5112561;27;45475;-73
2023/09/22 03:52:41;;;;;;;;;0.00;0.00;;;;;13.60;100.00;99891.13;5106600;27;45453;-73
2023/09/22 03:55:08;;;;;;;;;1.00;1.00;;;;;13.68;100.00;99902.03;5102703;27;46532;-73
2023/09/22 03:57:33;;;;;;;;;0.00;0.00;;;;;13.60;100.00;99898.25;5104164;27;45432;-73
2023/09/22 03:59:58;;;;;;;;;0.67;0.67;;;;;13.54;100.00;99886.28;5111946;27;54222;-73
2023/09/22 04:02:27;;;;;;;;;2.00;2.00;;;;;13.63;100.00;99908.66;5105915;27;51488;-74
2023/09/22 04:04:53;;;;;;;;;0.00;0.00;;;;;13.58;100.00;99907.19;5109904;27;45472;-73
2023/09/22 04:07:19;;;;;;;;;2.33;0.33;;;;;13.57;100.00;99902.84;5101216;27;45284;-73
2023/09/22 04:09:44;;;;;;;;;1.00;1.00;;;;;13.54;100.00;99903.06;5115563;27;45512;-73
2023/09/22 04:12:11;;;;;;;;;2.00;0.50;;;;;13.56;100.00;99910.91;5103253;27;50738;-73
2023/09/22 04:14:37;;;;;;;;;0.00;0.00;;;;;13.46;100.00;99900.13;5112682;27;45493;-73
2023/09/22 04:17:03;;;;;;;;;1.00;0.00;;;;;13.49;100.00;99899.88;5105725;27;45753;-73
2023/09/22 04:19:33;;;;;;;;;2.00;1.67;;;;;13.52;100.00;99910.28;5111518;27;45392;-73
2023/09/22 04:21:59;;;;;;;;;2.33;1.33;;;;;13.43;100.00;99883.56;5105040;27;45609;-73
2023/09/22 04:24:31;;;;;;;;;1.00;1.00;;;;;13.48;100.00;99898.19;5104668;27;45398;-73
2023/09/22 04:27:00;;;;;;;;;1.00;0.00;;;;;13.38;100.00;99880.41;5113019;27;45445;-73
2023/09/22 04:29:26;;;;;;;;;1.67;1.67;;;;;13.45;100.00;99894.91;5116697;27;45594;-73
2023/09/22 04:31:51;;;;;;;;;1.00;1.00;;;;;13.39;100.00;99896.22;5108532;27;45305;-74
2023/09/22 04:34:18;;;;;;;;;2.67;0.00;;;;;13.44;100.00;99896.75;5100823;27;45548;-73
2023/09/22 04:36:43;;;;;;;;;2.00;2.00;;;;;13.37;100.00;99878.69;5113138;27;45652;-73
2023/09/22 04:39:10;;;;;;;;;2.00;2.00;;;;;13.41;100.00;99877.53;5113017;27;45487;-73
2023/09/22 04:41:36;;;;;;;;;1.00;1.00;;;;;13.48;100.00;99884.09;5110434;27;45537;-73
2023/09/22 04:44:02;;;;;;;;;2.00;2.00;;;;;13.50;100.00;99884.81;5103560;27;45389;-74
2023/09/22 04:46:27;;;;;;;;;2.00;2.00;;;;;13.52;100.00;99891.69;5106982;27;45431;-73
2023/09/22 04:48:54;;;;;;;;;2.00;1.00;;;;;13.48;100.00;99870.81;5106555;27;45473;-73
2023/09/22 04:51:20;;;;;;;;;2.67;1.33;;;;;13.53;100.00;99887.22;5105025;27;45238;-73
2023/09/22 04:53:45;;;;;;;;;3.33;2.00;;;;;13.51;100.00;99890.00;5110686;27;45355;-73
2023/09/22 04:56:11;;;;;;;;;4.33;3.00;;;;;13.39;100.00;99866.13;5101876;27;45259;-73
2023/09/22 04:58:38;;;;;;;;;2.00;2.00;;;;;13.45;100.00;99874.50;5098722;27;45260;-74
2023/09/22 05:01:03;;;;;;;;;2.33;2.33;;;;;13.51;100.00;99894.47;5100707;27;45289;-73
2023/09/22 05:03:29;;;;;;;;;2.67;2.67;;;;;13.49;100.00;99894.56;5111555;27;46080;-73
2023/09/22 05:06:01;;;;;;;;;2.33;2.00;;;;;13.48;100.00;99892.88;5105730;27;45330;-74
2023/09/22 05:08:26;;;;;;;;;2.00;2.00;;;;;13.49;100.00;99891.06;5103993;27;45368;-74
2023/09/22 05:10:52;;;;;;;;;1.33;1.33;;;;;13.42;100.00;99881.84;5100338;27;45430;-74
2023/09/22 05:13:18;;;;;;;;;3.33;2.67;;;;;13.52;100.00;99893.50;5116931;27;46659;-74
2023/09/22 05:15:43;;;;;;;;;4.33;2.00;;;;;13.47;100.00;99872.59;5118826;27;45454;-73
2023/09/22 05:18:13;;;;;;;;;2.00;1.00;;;;;13.55;100.00;99891.47;5106663;27;45500;-73
2023/09/22 05:20:40;;;;;;;;;3.33;2.00;;;;;13.47;100.00;99877.06;5107359;27;45766;-74
2023/09/22 05:23:06;;;;;;;;;2.33;2.33;;;;;13.57;100.00;99892.22;5111654;27;46438;-73
2023/09/22 05:25:32;;;;;;;;;2.33;2.00;;;;;13.47;100.00;99879.72;5114171;27;45290;-73
2023/09/22 05:27:58;;;;;;;;;0.67;0.67;;;;;13.54;100.00;99886.28;5101499;27;45367;-74
2023/09/22 05:30:23;;;;;;;;;1.67;1.67;;;;;13.57;100.00;99880.75;5115150;27;45343;-74
2023/09/22 05:32:49;;;;;;;;;2.00;2.00;;;;;13.67;100.00;99889.72;5121568;27;54318;-74
2023/09/22 05:35:15;;;;;;;;;3.00;2.00;;;;;13.66;100.00;99876.53;5122833;27;45485;-74
2023/09/22 05:37:41;;;;;;;;;1.00;1.00;;;;;13.63;100.00;99876.78;5103590;27;45312;-75
2023/09/22 05:40:12;;;;;;;;;5.00;2.00;;;;;13.80;100.00;99895.81;5101042;27;45385;-74
2023/09/22 05:42:38;;;;;;;;;3.00;3.00;;;;;13.81;100.00;99894.84;5113307;27;47985;-74
2023/09/22 05:45:04;;;;;;;;;3.00;1.00;;;;;13.84;100.00;99883.97;5107919;27;45501;-75
2023/09/22 05:47:29;;;;;;;;;1.33;1.33;;;;;13.84;100.00;99883.16;5104123;27;46951;-74
2023/09/22 05:49:55;;;;;;;;;1.00;1.00;;;;;13.90;100.00;99880.03;5103759;27;45509;-73
2023/09/22 05:52:21;;;;;;;;;2.00;2.00;;;;;13.91;100.00;99871.06;5101380;27;45477;-75
2023/09/22 05:54:47;;;;;;;;;1.67;1.67;;;;;13.95;100.00;99868.06;5114238;27;45406;-75
2023/09/22 05:57:13;;;;;;;;;0.67;0.67;;;;;14.03;100.00;99880.78;5112658;27;45532;-75
2023/09/22 05:59:38;;;;;;;;;1.33;1.33;;;;;14.04;100.00;99872.69;5113247;27;45506;-74
2023/09/22 06:02:05;;;;;;;;;2.00;1.00;;;;;14.10;100.00;99876.72;5108349;27;45410;-74
2023/09/22 06:04:32;;;;;;;;;2.67;1.67;;;;;14.13;100.00;99876.47;5106234;27;45468;-74
2023/09/22 06:06:58;;;;;;;;;2.00;2.00;;;;;14.18;100.00;99878.75;5118572;27;45570;-75
2023/09/22 06:09:23;;;;;;;;;2.00;2.00;;;;;14.22;100.00;99881.09;5110779;27;45512;-74
2023/09/22 06:11:49;;;;;;;;;4.00;2.00;;;;;14.26;100.00;99881.69;5119321;27;47884;-74
2023/09/22 06:14:15;;;;;;;;;4.00;2.33;;;;;13.81;100.00;99812.44;5106935;27;45400;-75
2023/09/22 06:16:41;;;;;;;;;1.00;1.00;;;;;14.21;100.00;99878.53;5109580;27;44870;-75
2023/09/22 06:19:10;;;;;;;;;2.33;1.67;;;;;14.20;100.00;99860.91;5112630;27;45398;-74
2023/09/22 06:21:36;;;;;;;;;4.00;1.00;;;;;14.33;100.00;99894.41;5114187;27;46177;-75
2023/09/22 06:24:01;;;;;;;;;3.00;1.00;;;;;14.34;100.00;99895.28;5129007;27;45382;-75
2023/09/22 06:26:26;;;;;;;;;1.33;1.00;;;;;14.20;100.00;99874.19;5112987;27;45382;-77
2023/09/22 06:28:52;;;;;;;;;2.00;2.00;;;;;14.33;100.00;99898.88;5109960;27;45619;-76
2023/09/22 06:31:17;;;;;;;;;3.33;2.33;;;;;14.33;100.00;99915.69;5110738;27;48464;-77
2023/09/22 06:33:43;;;;;;;;;3.00;2.00;;;;;14.39;100.00;99904.63;5118898;27;45525;-77
2023/09/22 06:36:08;;;;;;;;;1.00;1.00;;;;;14.41;100.00;99899.16;5118197;27;46892;-77
2023/09/22 06:38:33;;;;;;;;;2.00;2.00;;;;;14.35;100.00;99889.84;5112709;27;45506;-75
2023/09/22 06:41:04;;;;;;;;;2.67;2.33;;;;;14.42;100.00;99906.19;5120192;27;45531;-75
2023/09/22 06:43:30;;;;;;;;;3.67;1.00;;;;;14.28;100.00;99879.75;5126871;27;45356;-75
2023/09/22 06:45:58;;;;;;;;;2.67;2.00;;;;;14.39;100.00;99891.31;5113938;27;45294;-75
2023/09/22 06:48:27;;;;;;;;;2.00;2.00;;;;;14.42;100.00;99900.84;5134335;27;44809;-75
2023/09/22 06:50:53;;;;;;;;;1.00;1.00;;;;;14.41;100.00;99891.16;5107979;27;47500;-77
2023/09/22 06:53:20;;;;;;;;;0.67;0.67;;;;;14.36;100.00;99880.91;5116701;27;45506;-76
2023/09/22 06:55:45;;;;;;;;;2.00;0.67;;;;;14.44;100.00;99888.28;5115494;27;45227;-76
2023/09/22 06:58:11;;;;;;;;;1.67;1.67;;;;;14.43;100.00;99891.91;5108017;27;45417;-75
2023/09/22 07:00:36;;;;;;;;;1.33;1.33;;;;;14.45;100.00;99895.31;5108448;27;46708;-75
2023/09/22 07:03:01;;;;;;;;;2.00;2.00;;;;;14.28;100.00;99867.31;5115371;27;45537;-76
2023/09/22 07:05:27;;;;;;;;;0.33;0.33;;;;;14.37;100.00;99895.03;5119761;27;45240;-75
2023/09/22 07:07:52;;;;;;;;;1.00;1.00;;;;;14.44;100.00;99897.09;5111776;27;45336;-75
2023/09/22 07:10:19;;;;;;;;;0.00;0.00;;;;;14.31;100.00;99875.03;5124707;27;47274;-75
2023/09/22 07:12:44;;;;;;;;;1.00;1.00;;;;;14.29;100.00;99877.00;5106474;27;45383;-75
2023/09/22 07:15:10;;;;;;;;;1.00;1.00;;;;;14.39;100.00;99901.09;5116156;27;45454;-75
2023/09/22 07:17:36;;;;;;;;;1.00;1.00;;;;;14.39;100.00;99911.75;5107785;27;45522;-75
2023/09/22 07:20:04;;;;;;;;;1.00;1.00;;;;;14.39;100.00;99901.09;5101630;27;45381;-76
2023/09/22 07:22:31;;;;;;;;;2.33;0.33;;;;;14.44;100.00;99910.41;5112474;27;45354;-74
2023/09/22 07:24:56;;;;;;;;;0.67;0.00;;;;;14.41;100.00;99889.38;5106988;27;45495;-75
2023/09/22 07:27:23;;;;;;;;;0.33;0.33;;;;;14.43;100.00;99884.75;5111421;27;45540;-74
2023/09/22 07:29:50;;;;;;;;;1.33;1.33;;;;;14.59;100.00;99887.91;5120473;27;45302;-74
2023/09/22 07:32:19;;;;;;;;;0.67;0.67;;;;;14.64;100.00;99895.56;5106124;27;45510;-75
2023/09/22 07:34:45;;;;;;;;;1.33;0.00;;;;;14.65;100.00;99888.44;5109371;27;45333;-75
2023/09/22 07:37:11;;;;;;;;;2.00;1.00;;;;;14.61;100.00;99882.50;5104862;27;45531;-74
2023/09/22 07:39:38;;;;;;;;;1.33;0.00;;;;;14.72;100.00;99893.16;5120357;27;45402;-75
2023/09/22 07:42:04;;;;;;;;;2.00;0.00;;;;;14.78;100.00;99891.81;5120403;27;45381;-75
2023/09/22 07:44:30;;;;;;;;;0.00;0.00;;;;;14.82;100.00;99885.28;5134806;27;45486;-74
2023/09/22 07:46:58;;;;;;;;;2.00;1.00;;;;;14.84;100.00;99884.19;5106866;27;45445;-75
2023/09/22 07:49:24;;;;;;;;;0.67;0.67;;;;;14.85;100.00;99885.91;5104733;27;45441;-75
2023/09/22 07:51:49;;;;;;;;;0.33;0.33;;;;;14.91;100.00;99880.06;5100096;27;45462;-75
2023/09/22 07:54:15;;;;;;;;;2.67;0.67;;;;;14.83;100.00;99869.19;5103002;27;45339;-75
2023/09/22 07:56:40;;;;;;;;;2.00;1.00;;;;;14.92;100.00;99880.94;5113576;27;45388;-75
2023/09/22 07:59:05;;;;;;;;;2.00;1.00;;;;;14.90;100.00;99883.69;5104211;27;46127;-75
2023/09/22 08:01:31;;;;;;;;;0.00;0.00;;;;;14.80;100.00;99865.91;5119933;27;45680;-76
2023/09/22 08:03:56;;;;;;;;;3.33;1.67;;;;;14.89;100.00;99903.28;5109460;27;45312;-75
2023/09/22 08:06:21;;;;;;;;;3.00;2.00;;;;;14.85;100.00;99880.56;5119924;27;45432;-74
2023/09/22 08:08:50;;;;;;;;;2.00;2.00;;;;;14.89;100.00;99886.47;5111264;27;46787;-75
2023/09/22 08:11:18;;;;;;;;;2.00;1.00;;;;;14.89;100.00;99876.66;5119706;27;45357;-76
2023/09/22 08:13:45;;;;;;;;;2.67;0.67;;;;;14.81;100.00;99881.78;5121659;27;45478;-76
2023/09/22 08:16:12;;;;;;;;;1.00;1.00;;;;;14.80;100.00;99873.91;5103232;27;45328;-75
2023/09/22 08:18:40;;;;;;;;;1.00;1.00;;;;;14.93;100.00;99890.59;5100445;27;46983;-75
2023/09/22 08:21:05;;;;;;;;;0.00;0.00;;;;;14.94;100.00;99884.31;5104054;27;45532;-75
2023/09/22 08:23:30;;;;;;;;;0.33;0.33;;;;;14.93;100.00;99883.44;5111284;27;45579;-75
2023/09/22 08:25:56;;;;;;;;;2.00;0.00;;;;;15.01;100.00;99890.84;5113683;27;53809;-75
2023/09/22 08:28:22;;;;;;;;;0.33;0.33;;;;;15.02;100.00;99890.69;5117038;27;45251;-75
2023/09/22 08:30:48;;;;;;;;;1.67;0.67;;;;;14.99;100.00;99890.94;5117172;27;45322;-75
2023/09/22 08:33:13;;;;;;;;;2.00;0.67;;;;;14.97;100.00;99876.06;5120849;27;45343;-75
2023/09/22 08:35:40;;;;;;;;;0.33;0.00;;;;;15.06;100.00;99892.16;5112612;27;45421;-75
2023/09/22 08:38:05;;;;;;;;;1.00;0.00;;;;;15.03;100.00;99894.22;5121530;27;45417;-75
2023/09/22 08:40:31;;;;;;;;;0.67;0.67;;;;;14.98;100.00;99891.09;5102678;27;45412;-76
2023/09/22 08:42:57;;;;;;;;;0.00;0.00;;;;;14.98;100.00;99899.06;5100470;27;45319;-75
2023/09/22 08:45:23;;;;;;;;;0.00;0.00;;;;;14.87;100.00;99891.94;5114619;27;45306;-75
2023/09/22 08:47:49;;;;;;;;;1.00;0.00;;;;;14.87;100.00;99888.41;5101926;27;45434;-76
2023/09/22 08:50:19;;;;;;;;;0.00;0.00;;;;;14.83;100.00;99876.31;5116179;27;45304;-76
2023/09/22 08:52:48;;;;;;;;;0.00;0.00;;;;;14.81;100.00;99889.75;5113574;27;45293;-75
2023/09/22 08:55:14;;;;;;;;;0.00;0.00;;;;;14.83;100.00;99887.81;5115078;27;45462;-75
2023/09/22 08:57:44;;;;;;;;;0.00;0.00;;;;;14.84;100.00;99875.34;5100404;27;45304;-75
2023/09/22 09:00:18;;;;;;;;;0.00;0.00;;;;;14.83;100.00;99879.81;5106293;27;45326;-75
2023/09/22 09:02:45;;;;;;;;;0.00;0.00;;;;;14.91;100.00;99892.53;5106807;27;45823;-75
2023/09/22 09:05:28;;;;;;;;;1.00;0.00;;;;;14.86;100.00;99884.91;5105075;27;45395;-75
2023/09/22 09:07:55;;;;;;;;;0.00;0.00;;;;;14.99;100.00;99893.59;5111590;27;47146;-75
2023/09/22 09:10:25;;;;;;;;;0.00;0.00;;;;;15.00;100.00;99875.81;5116562;27;45258;-75
2023/09/22 09:12:50;;;;;;;;;0.00;0.00;;;;;15.20;100.00;99887.53;5123828;27;45828;-74
2023/09/22 09:15:15;;;;;;;;;0.00;0.00;;;;;15.37;100.00;99887.03;5113221;27;52136;-75
2023/09/22 09:17:41;;;;;;;;;0.00;0.00;;;;;15.56;100.00;99887.25;5117652;27;50786;-75
2023/09/22 09:20:07;;;;;;;;;0.00;0.00;;;;;15.54;100.00;99873.22;5123998;27;45288;-74
2023/09/22 09:22:37;;;;;;;;;1.67;0.00;;;;;15.59;100.00;99884.31;5126744;27;45362;-76
2023/09/22 09:25:09;;;;;;;;;0.00;0.00;;;;;15.73;100.00;99901.84;5106807;27;45390;-75
2023/09/22 09:27:34;;;;;;;;;0.00;0.00;;;;;15.90;100.00;99893.31;5102928;27;46233;-74
2023/09/22 09:30:06;;;;;;;;;0.00;0.00;;;;;16.01;100.00;99904.75;5101633;27;45274;-75
2023/09/22 09:32:32;;;;;;;;;1.00;0.00;;;;;16.07;100.00;99903.38;5114941;27;45414;-74
2023/09/22 09:34:57;;;;;;;;;0.00;0.00;;;;;15.98;100.00;99904.16;5104643;27;49971;-74
2023/09/22 09:37:23;;;;;;;;;0.67;0.00;;;;;16.12;100.00;99923.38;5110145;27;46328;-76
2023/09/22 09:39:52;;;;;;;;;0.00;0.00;;;;;16.01;100.00;99918.09;5101950;27;45415;-75
2023/09/22 09:42:23;;;;;;;;;0.00;0.00;;;;;15.98;100.00;99921.00;5103897;27;45369;-75
2023/09/22 09:44:54;;;;;;;;;0.00;0.00;;;;;16.06;100.00;99941.72;5106676;27;45648;-74
2023/09/22 09:47:23;;;;;;;;;0.00;0.00;;;;;16.13;100.00;99943.72;5119801;27;46386;-75
2023/09/22 09:49:53;;;;;;;;;0.00;0.00;;;;;16.10;100.00;99913.78;5116527;27;45354;-75
2023/09/22 09:52:28;;;;;;;;;0.00;0.00;;;;;16.19;100.00;99925.53;5110468;27;45318;-75
2023/09/22 09:55:08;;;;;;;;;0.67;0.00;;;;;16.29;100.00;99937.97;5101642;27;45395;-74
2023/09/22 09:57:38;;;;;;;;;0.00;0.00;;;;;16.28;100.00;99930.09;5099401;27;46973;-74
2023/09/22 10:00:13;;;;;;;;;0.00;0.00;;;;;16.31;100.00;99924.47;5105290;27;45415;-75
2023/09/22 10:02:43;;;;;;;;;0.00;0.00;;;;;16.47;100.00;99939.06;5117472;27;45320;-75
2023/09/22 10:05:11;;;;;;;;;0.00;0.00;;;;;16.53;100.00;99943.88;5104857;27;45464;-75
2023/09/22 10:07:38;;;;;;;;;0.00;0.00;;;;;16.49;100.00;99966.47;5120854;27;45502;-75
2023/09/22 10:10:05;;;;;;;;;0.00;0.00;;;;;16.48;100.00;100001.31;5114864;27;45711;-75
2023/09/22 10:12:31;;;;;;;;;0.00;0.00;;;;;16.36;100.00;99989.81;5119996;27;45536;-75
2023/09/22 10:15:01;;;;;;;;;0.00;0.00;;;;;16.36;100.00;100010.34;5110169;27;45330;-75
2023/09/22 10:17:27;;;;;;;;;0.00;0.00;;;;;16.11;100.00;99996.38;5116635;27;47606;-75
2023/09/22 10:19:53;;;;;;;;;0.00;0.00;;;;;16.25;100.00;100031.72;5112489;27;45330;-75
2023/09/22 10:22:19;;;;;;;;;0.00;0.00;;;;;16.33;100.00;100015.94;5114731;27;45498;-75
2023/09/22 10:24:44;;;;;;;;;0.00;0.00;;;;;16.31;100.00;100031.22;5112211;27;45599;-75
2023/09/22 10:27:13;;;;;;;;;0.00;0.00;;;;;16.27;100.00;100025.28;5115002;27;45484;-75
2023/09/22 10:29:41;;;;;;;;;0.00;0.00;;;;;16.53;100.00;100036.47;5122494;27;45376;-75
2023/09/22 10:32:18;;;;;;;;;0.00;0.00;;;;;16.60;100.00;100033.19;5116916;27;45357;-75
2023/09/22 10:34:51;;;;;;;;;0.00;0.00;;;;;16.59;100.00;100039.50;5119945;27;45363;-76
2023/09/22 10:37:26;;;;;;;;;0.00;0.00;;;;;16.54;100.00;100041.69;5117726;27;45641;-75
2023/09/22 10:40:19;;;;;;;;;0.00;0.00;;;;;16.66;100.00;100058.50;5112348;27;45346;-75
2023/09/22 10:42:46;;;;;;;;;0.00;0.00;;;;;16.72;100.00;100041.97;5116105;27;45172;-75
2023/09/22 10:45:14;;;;;;;;;1.00;0.00;;;;;16.94;100.00;100051.69;5112074;27;45436;-75
2023/09/22 10:47:47;;;;;;;;;0.00;0.00;;;;;16.90;94.26;100031.56;5109175;27;46197;-75
2023/09/22 10:50:13;;;;;;;;;0.00;0.00;;;;;16.94;95.57;100057.03;5113764;27;45342;-75
2023/09/22 10:52:39;;;;;;;;;1.00;0.00;;;;;16.75;100.00;100052.41;5113107;27;45237;-75
2023/09/22 10:55:06;;;;;;;;;0.00;0.00;;;;;16.73;100.00;100078.38;5127571;27;45523;-75
2023/09/22 10:57:33;;;;;;;;;0.00;0.00;;;;;16.59;100.00;100078.69;5126734;27;45699;-75
2023/09/22 11:00:00;;;;;;;;;0.00;0.00;;;;;16.36;100.00;100075.22;5115134;27;45404;-75
2023/09/22 11:02:26;;;;;;;;;0.00;0.00;;;;;16.22;100.00;100096.88;5114737;27;45500;-75
2023/09/22 11:04:52;;;;;;;;;0.00;0.00;;;;;16.07;100.00;100112.28;5107600;27;45232;-77
2023/09/22 11:07:34;;;;;;;;;0.00;0.00;;;;;15.77;100.00;100116.59;5113259;27;46693;-77
2023/09/22 11:10:02;;;;;;;;;0.67;0.00;;;;;15.54;100.00;100118.41;5112875;27;45535;-75
2023/09/22 11:12:28;;;;;;;;;0.67;0.00;;;;;15.34;100.00;100103.09;5115626;27;45232;-75
2023/09/22 11:14:54;;;;;;;;;1.00;0.00;;;;;15.50;100.00;100122.28;5102780;27;45221;-75
2023/09/22 11:17:21;;;;;;;;;0.00;0.00;;;;;15.53;100.00;100127.38;5114953;27;45323;-75
2023/09/22 11:19:53;;;;;;;;;0.00;0.00;;;;;15.66;100.00;100140.56;5114607;27;45438;-74
2023/09/22 11:22:20;;;;;;;;;1.00;1.00;;;;;15.66;100.00;100133.44;5118257;27;45483;-75